Time,TemperatureF,DewpointF,PressureIn,WindDirection,WindDirectionDegrees,WindSpeedMPH,WindSpeedGustMPH,Humidity,HourlyPrecipIn,Conditions,Clouds,dailyrainin,SoftwareType,DateUTC
2013-03-04 01:02:00,49.0,-99.9,-100.00,West,271,5.0,9.0,-999,-99.99,,,-99.99,,2013-03-04 09:02:00,
2013-03-04 01:11:00,49.0,-99.9,30.12,West,271,5.0,9.0,-999,-99.99,,,-99.99,,2013-03-04 09:11:00,
2013-03-04 03:02:00,49.0,-99.9,-100.00,East,79,3.0,4.0,-999,-99.99,,,-99.99,,2013-03-04 11:02:00,
2013-03-04 03:11:00,49.0,-99.9,30.12,East,79,3.0,4.0,-999,-99.99,,,-99.99,,2013-03-04 11:11:00,
2013-03-04 06:01:00,49.0,-99.9,-100.00,NW,316,11.0,13.0,-999,-99.99,,,-99.99,,2013-03-04 14:01:00,
2013-03-04 06:12:00,49.0,-99.9,30.13,NW,316,11.0,13.0,-999,-99.99,,,-99.99,,2013-03-04 14:12:00,
2013-03-04 08:03:00,49.0,-99.9,-100.00,NW,323,8.0,9.0,-999,-99.99,,,-99.99,,2013-03-04 16:03:00,
2013-03-04 08:11:00,49.0,-99.9,30.15,NW,323,8.0,9.0,-999,-99.99,,,-99.99,,2013-03-04 16:11:00,
2013-03-04 11:02:00,49.0,-99.9,-100.00,North,351,7.0,9.0,-999,-99.99,,,-99.99,,2013-03-04 19:02:00,
2013-03-04 11:12:00,49.0,-99.9,30.17,North,351,7.0,9.0,-999,-99.99,,,-99.99,,2013-03-04 19:12:00,
2013-03-04 14:02:00,49.0,-99.9,-100.00,NW,326,11.0,12.0,-999,-99.99,,,-99.99,,2013-03-04 22:02:00,
2013-03-04 14:12:00,49.0,-99.9,30.11,NW,326,11.0,12.0,-999,-99.99,,,-99.99,,2013-03-04 22:12:00,
2013-03-04 17:02:00,49.0,-99.9,-100.00,West,278,9.0,13.0,-999,-99.99,,,-99.99,,2013-03-05 01:02:00,
2013-03-04 17:12:00,49.0,-99.9,30.11,West,278,9.0,13.0,-999,-99.99,,,-99.99,,2013-03-05 01:12:00,
2013-03-04 19:02:00,49.0,-99.9,-100.00,WSW,251,5.0,11.0,-999,-99.99,,,-99.99,,2013-03-05 03:02:00,
2013-03-04 19:12:00,49.0,-99.9,30.10,WSW,251,5.0,11.0,-999,-99.99,,,-99.99,,2013-03-05 03:12:00,
2013-03-04 20:02:00,48.0,-99.9,-100.00,SSW,196,3.0,4.0,-999,-99.99,,,-99.99,,2013-03-05 04:02:00,
2013-03-04 20:12:00,48.0,-99.9,30.09,SSW,196,3.0,4.0,-999,-99.99,,,-99.99,,2013-03-05 04:12:00,
2013-03-04 22:02:00,47.0,-99.9,-100.00,WNW,283,2.0,3.0,-999,-99.99,,,-99.99,,2013-03-05 06:02:00,
2013-03-04 22:11:00,47.0,-99.9,30.09,WNW,283,2.0,3.0,-999,-99.99,,,-99.99,,2013-03-05 06:11:00,